Time;durP1;ratioP1;P1;durP2;ratioP2;P2;SDS_P1;SDS_P2;PMS_P1;PMS_P2;Temp;Humidity;BMP_temperature;BMP_pressure;BME280_temperature;BME280_humidity;BME280_pressure;Samples;Min_cycle;Max_cycle;Signal;HPM_P1;HPM_P2
2024/01/29 00:02:57;;;;;;;35.00;16.80;;;;;;;-0.04;85.01;102082.71;137130;1276;22382;-74
2024/01/29 00:05:58;;;;;;;37.40;17.10;;;;;;;-0.06;84.95;102084.52;137146;1276;23172;-73
2024/01/29 00:08:59;;;;;;;37.10;17.70;;;;;;;-0.05;85.07;102087.64;137140;1274;23426;-72
2024/01/29 00:12:00;;;;;;;33.90;17.50;;;;;;;-0.06;85.12;102089.57;137163;1276;22371;-73
2024/01/29 00:15:01;;;;;;;;;;;;;;;-0.07;85.04;102088.90;137160;1276;23217;-73
2024/01/29 00:18:02;;;;;;;35.10;16.70;;;;;;;-0.07;84.97;102086.32;136938;1276;22405;-73
2024/01/29 00:21:03;;;;;;;35.60;16.80;;;;;;;-0.08;84.96;102085.29;137157;1276;23599;-73
2024/01/29 00:24:04;;;;;;;33.90;16.30;;;;;;;-0.07;85.16;102089.59;137151;1276;23056;-73
2024/01/29 00:27:05;;;;;;;31.70;15.70;;;;;;;-0.05;84.93;102089.19;137122;1276;22354;-73
2024/01/29 00:30:07;;;;;;;34.40;16.00;;;;;;;-0.05;84.91;102086.55;137146;1276;23077;-73
2024/01/29 00:33:08;;;;;;;34.10;16.50;;;;;;;-0.05;84.92;102087.28;137194;1276;23217;-73
2024/01/29 00:36:09;;;;;;;35.40;18.40;;;;;;;-0.05;85.11;102081.90;137155;1276;23143;-73
2024/01/29 00:39:10;;;;;;;34.70;15.60;;;;;;;-0.08;84.97;102083.39;137151;1271;23177;-73
2024/01/29 00:42:11;;;;;;;33.90;18.50;;;;;;;-0.11;85.07;102075.83;137134;1271;22342;-73
2024/01/29 00:45:12;;;;;;;;;;;;;;;-0.12;84.97;102077.60;137146;1272;22365;-73
2024/01/29 00:48:13;;;;;;;32.40;16.60;;;;;;;-0.13;85.14;102077.27;137117;1276;22999;-73
2024/01/29 00:51:16;;;;;;;32.20;17.10;;;;;;;-0.13;85.23;102080.42;137150;1276;23012;-73
2024/01/29 00:54:19;;;;;;;37.60;16.70;;;;;;;-0.12;85.21;102077.77;137135;1276;22370;-73
2024/01/29 00:57:22;;;;;;;33.00;16.40;;;;;;;-0.11;85.53;102075.99;137163;1276;23104;-73
2024/01/29 01:00:22;;;;;;;31.60;16.50;;;;;;;-0.07;85.49;102081.27;137180;1276;22340;-73
2024/01/29 01:03:23;;;;;;;37.80;16.70;;;;;;;-0.05;85.26;102080.33;137149;1276;22356;-73
2024/01/29 01:06:27;;;;;;;;;;;;;;;-0.03;85.44;102083.38;137136;1276;22376;-73
2024/01/29 01:09:27;;;;;;;35.80;17.70;;;;;;;-0.04;85.47;102081.84;137140;1273;22440;-73
2024/01/29 01:12:28;;;;;;;34.40;17.30;;;;;;;-0.07;85.15;102076.89;137118;1276;22351;-73
2024/01/29 01:15:29;;;;;;;;;;;;;;;-0.10;85.29;102067.95;137140;1276;22520;-73
2024/01/29 01:18:30;;;;;;;39.00;18.70;;;;;;;-0.14;85.39;102060.09;137145;1276;22365;-73
2024/01/29 01:21:30;;;;;;;32.50;18.30;;;;;;;-0.18;85.32;102060.73;137104;1276;23156;-73
2024/01/29 01:24:34;;;;;;;41.10;19.30;;;;;;;-0.21;85.73;102057.88;137112;1271;22225;-74
2024/01/29 01:27:35;;;;;;;34.30;18.50;;;;;;;-0.21;85.84;102056.50;137097;1276;22278;-73
2024/01/29 01:30:35;;;;;;;33.60;17.20;;;;;;;-0.21;85.80;102057.20;137149;1272;22347;-73
2024/01/29 01:33:36;;;;;;;34.50;17.30;;;;;;;-0.21;85.60;102052.31;137172;1276;22287;-73
2024/01/29 01:36:37;;;;;;;35.30;18.20;;;;;;;-0.20;85.66;102050.55;137164;1276;22407;-73
2024/01/29 01:39:38;;;;;;;36.10;19.40;;;;;;;-0.21;85.75;102047.43;137171;1273;22331;-73
2024/01/29 01:42:42;;;;;;;;;;;;;;;-0.21;85.77;102049.55;136979;1277;22411;-73
2024/01/29 01:45:42;;;;;;;38.70;19.70;;;;;;;-0.23;85.52;102052.56;136933;1277;22356;-73
2024/01/29 01:48:43;;;;;;;39.50;21.50;;;;;;;-0.25;85.50;102056.42;137149;1276;22356;-73
2024/01/29 01:51:45;;;;;;;42.80;21.60;;;;;;;-0.25;85.67;102055.73;137125;1276;22362;-73
2024/01/29 01:54:47;;;;;;;40.60;21.90;;;;;;;-0.27;85.53;102057.03;137175;1276;22271;-73
2024/01/29 01:57:48;;;;;;;41.70;22.20;;;;;;;-0.29;85.70;102062.50;137113;1273;22286;-73
2024/01/29 02:00:48;;;;;;;;;;;;;;;-0.32;85.41;102063.09;137174;1277;22383;-73
2024/01/29 02:03:52;;;;;;;41.40;21.00;;;;;;;-0.33;85.65;102065.77;137147;1277;22342;-74
2024/01/29 02:06:56;;;;;;;40.00;20.00;;;;;;;-0.34;85.48;102067.52;137121;1276;23587;-73
2024/01/29 02:10:00;;;;;;;42.50;20.80;;;;;;;-0.33;85.55;102063.52;137150;1276;22370;-73
2024/01/29 02:13:10;;;;;;;44.10;21.30;;;;;;;-0.34;85.60;102059.35;137139;1270;22360;-73
2024/01/29 02:16:11;;;;;;;42.40;21.70;;;;;;;-0.35;85.64;102059.36;137090;1276;22255;-73
2024/01/29 02:19:23;;;;;;;42.60;23.00;;;;;;;-0.35;85.67;102059.91;137111;1277;22345;-73
2024/01/29 02:22:26;;;;;;;44.80;21.60;;;;;;;-0.37;85.50;102059.80;136955;1277;22339;-73
2024/01/29 02:25:29;;;;;;;46.20;21.90;;;;;;;-0.43;85.52;102056.68;137108;1276;22276;-73
2024/01/29 02:28:33;;;;;;;34.60;18.60;;;;;;;-0.47;85.67;102050.38;137144;1276;22212;-73
2024/01/29 02:31:34;;;;;;;;;;;;;;;-0.52;85.82;102050.02;137155;1276;22450;-73
2024/01/29 02:34:34;;;;;;;41.90;20.80;;;;;;;-0.56;85.84;102047.53;137178;1276;22365;-73
2024/01/29 02:37:35;;;;;;;;;;;;;;;-0.57;86.04;102043.02;137158;1276;22387;-73
2024/01/29 02:40:36;;;;;;;43.70;22.70;;;;;;;-0.60;85.86;102036.02;137140;1276;22381;-73
2024/01/29 02:43:37;;;;;;;44.10;22.20;;;;;;;-0.64;85.81;102041.17;137109;1276;22364;-73
2024/01/29 02:46:40;;;;;;;44.00;23.00;;;;;;;-0.66;86.25;102038.80;137144;1276;22372;-73
2024/01/29 02:49:43;;;;;;;47.50;22.50;;;;;;;-0.70;85.90;102034.21;137171;1276;22420;-73
2024/01/29 02:52:43;;;;;;;39.80;20.90;;;;;;;-0.72;86.11;102031.32;136952;1276;22279;-73
2024/01/29 02:55:44;;;;;;;45.50;23.80;;;;;;;-0.76;85.94;102027.79;137174;1277;22371;-73
2024/01/29 02:58:45;;;;;;;;;;;;;;;-0.75;86.12;102020.85;137166;1277;22395;-73
2024/01/29 03:01:46;;;;;;;44.40;24.60;;;;;;;-0.77;86.08;102022.78;137118;1277;22359;-73
2024/01/29 03:04:47;;;;;;;46.70;24.00;;;;;;;-0.79;86.15;102020.61;137161;1276;23219;-73
2024/01/29 03:07:55;;;;;;;;;;;;;;;-0.79;86.40;102020.61;137075;1277;22383;-73
2024/01/29 03:10:56;;;;;;;56.20;27.40;;;;;;;-0.82;86.29;102023.98;136976;1274;22301;-73
2024/01/29 03:14:02;;;;;;;51.50;26.80;;;;;;;-0.85;86.47;102011.92;137193;1276;22361;-73
2024/01/29 03:17:06;;;;;;;54.70;27.40;;;;;;;-0.88;86.40;102011.48;137178;1276;22421;-73
2024/01/29 03:20:11;;;;;;;53.30;25.80;;;;;;;-0.91;86.39;102014.70;137140;1276;22383;-73
2024/01/29 03:23:19;;;;;;;55.90;27.60;;;;;;;-0.89;86.41;102016.75;137141;1276;22302;-73
2024/01/29 03:26:26;;;;;;;46.20;24.70;;;;;;;-0.87;86.34;102013.21;137164;1276;22308;-73
2024/01/29 03:29:28;;;;;;;49.30;27.50;;;;;;;-0.86;86.49;102014.56;136942;1276;22407;-73
2024/01/29 03:32:29;;;;;;;51.90;26.40;;;;;;;-0.86;86.63;102015.44;137143;1276;22661;-73
2024/01/29 03:35:29;;;;;;;;;;;;;;;-0.89;86.83;102005.45;137135;1276;22407;-73
2024/01/29 03:38:30;;;;;;;59.60;28.00;;;;;;;-0.92;86.56;102004.46;137179;1276;22423;-73
2024/01/29 03:41:34;;;;;;;;;;;;;;;-0.94;86.72;102001.58;137151;1274;22419;-73
2024/01/29 03:44:35;;;;;;;60.00;29.50;;;;;;;-0.97;86.75;102002.73;137104;1276;22306;-73
2024/01/29 03:47:36;;;;;;;52.60;27.00;;;;;;;-0.99;86.87;101997.08;137131;1276;22343;-73
2024/01/29 03:50:37;;;;;;;;;;;;;;;-1.00;86.83;101998.64;137171;1276;22399;-73
2024/01/29 03:53:40;;;;;;;57.80;27.90;;;;;;;-0.99;87.05;102003.84;137124;1276;22362;-73
2024/01/29 03:56:41;;;;;;;58.10;29.40;;;;;;;-0.98;86.97;102002.60;137069;1276;22423;-73
2024/01/29 03:59:48;;;;;;;53.60;29.70;;;;;;;-0.99;86.76;101998.45;136971;1276;22264;-73
2024/01/29 04:02:52;;;;;;;58.30;29.20;;;;;;;-0.98;87.23;101992.52;137134;1276;23166;-73
2024/01/29 04:05:53;;;;;;;62.70;31.30;;;;;;;-0.97;87.13;101989.88;137139;1276;23036;-73
2024/01/29 04:09:03;;;;;;;;;;;;;;;-0.97;87.25;101983.11;137159;1276;22469;-73
2024/01/29 04:12:04;;;;;;;61.10;30.60;;;;;;;-0.99;87.23;101978.13;137120;1276;22228;-73
2024/01/29 04:15:05;;;;;;;60.00;30.40;;;;;;;-1.00;87.33;101983.88;137151;1270;22395;-73
2024/01/29 04:18:06;;;;;;;52.90;28.90;;;;;;;-0.99;87.34;101983.33;137135;1276;22362;-73
2024/01/29 04:21:07;;;;;;;56.30;28.20;;;;;;;-0.99;87.26;101977.96;137101;1276;22351;-73
2024/01/29 04:24:11;;;;;;;;;;;;;;;-1.02;87.24;101978.92;137154;1276;22389;-74
2024/01/29 04:27:12;;;;;;;55.60;26.80;;;;;;;-1.07;87.30;101976.29;136963;1276;22339;-73
2024/01/29 04:30:15;;;;;;;;;;;;;;;-1.08;87.38;101974.94;136980;1275;23055;-73
2024/01/29 04:33:16;;;;;;;56.70;27.50;;;;;;;-1.07;87.60;101976.30;137142;1276;22361;-73
2024/01/29 04:36:17;;;;;;;51.10;27.90;;;;;;;-1.07;87.55;101972.47;137133;1276;22372;-73
2024/01/29 04:39:18;;;;;;;46.30;23.90;;;;;;;-1.07;87.41;101975.76;137122;1276;22397;-74
2024/01/29 04:42:18;;;;;;;;;;;;;;;-1.07;87.55;101978.20;137143;1273;22396;-74
2024/01/29 04:45:19;;;;;;;57.20;28.30;;;;;;;-1.09;87.74;101974.44;137173;1276;22366;-73
2024/01/29 04:48:21;;;;;;;55.30;28.30;;;;;;;-1.10;87.69;101973.77;137148;1276;22356;-73
2024/01/29 04:51:21;;;;;;;51.50;27.50;;;;;;;-1.12;88.16;101973.67;137132;1276;22403;-74
2024/01/29 04:54:22;;;;;;;;;;;;;;;-1.16;88.00;101969.08;137145;1276;22864;-73
2024/01/29 04:57:25;;;;;;;39.30;21.10;;;;;;;-1.20;87.91;101970.80;137144;1276;22440;-73
2024/01/29 05:00:26;;;;;;;48.70;25.90;;;;;;;-1.20;88.01;101968.70;137125;1276;22434;-73
2024/01/29 05:03:38;;;;;;;56.40;27.30;;;;;;;-1.18;88.21;101966.72;137173;1276;22282;-73
2024/01/29 05:06:39;;;;;;;56.30;27.40;;;;;;;-1.16;88.10;101962.30;137147;1276;22292;-73
2024/01/29 05:09:40;;;;;;;;;;;;;;;-1.14;88.25;101962.23;137165;1276;22405;-73
2024/01/29 05:12:41;;;;;;;54.90;28.90;;;;;;;-1.14;88.19;101960.16;137143;1275;22372;-73
2024/01/29 05:15:42;;;;;;;50.40;27.50;;;;;;;-1.15;88.18;101957.95;137122;1276;22367;-73
2024/01/29 05:18:42;;;;;;;81.40;37.80;;;;;;;-1.18;88.17;101959.80;137152;1276;23097;-73
2024/01/29 05:21:43;;;;;;;131.90;53.40;;;;;;;-1.20;88.35;101957.23;137152;1276;22366;-73
2024/01/29 05:24:44;;;;;;;52.60;27.70;;;;;;;-1.22;88.31;101956.77;137134;1276;22246;-73
2024/01/29 05:27:47;;;;;;;59.20;29.60;;;;;;;-1.26;88.38;101955.33;137158;1276;22367;-73
2024/01/29 05:30:53;;;;;;;51.60;27.90;;;;;;;-1.29;88.29;101947.63;136965;1276;22285;-73
2024/01/29 05:34:03;;;;;;;48.00;25.30;;;;;;;-1.30;88.49;101945.73;137134;1276;22244;-73
2024/01/29 05:37:04;;;;;;;53.50;26.50;;;;;;;-1.30;88.80;101938.61;137150;1276;22390;-73
2024/01/29 05:40:11;;;;;;;52.50;27.00;;;;;;;-1.29;88.85;101943.27;137153;1276;22381;-73
2024/01/29 05:43:18;;;;;;;54.60;28.80;;;;;;;-1.30;89.02;101940.17;137203;1273;22314;-73
2024/01/29 05:46:33;;;;;;;72.40;33.40;;;;;;;-1.31;88.85;101941.77;136927;1276;22296;-73
2024/01/29 05:49:37;;;;;;;60.20;32.40;;;;;;;-1.33;89.38;101942.17;137155;1276;22305;-74
2024/01/29 05:52:38;;;;;;;66.20;34.20;;;;;;;-1.37;89.37;101940.55;136934;1276;22223;-76
2024/01/29 05:55:39;;;;;;;55.60;29.90;;;;;;;-1.42;89.16;101936.69;137178;1276;22341;-76
2024/01/29 05:58:44;;;;;;;53.40;27.10;;;;;;;-1.43;90.07;101945.95;137121;1276;22449;-75
2024/01/29 06:01:45;;;;;;;49.70;27.70;;;;;;;-1.46;89.53;101945.32;137143;1276;22391;-75
2024/01/29 06:04:49;;;;;;;63.30;30.60;;;;;;;-1.44;89.57;101946.64;137207;1276;23934;-75
2024/01/29 06:07:51;;;;;;;57.30;28.70;;;;;;;-1.41;89.41;101945.54;137106;1276;23005;-75
2024/01/29 06:10:55;;;;;;;55.60;29.60;;;;;;;-1.41;89.56;101948.29;137182;1276;22367;-75
2024/01/29 06:13:56;;;;;;;54.00;28.70;;;;;;;-1.40;89.96;101948.96;137147;1272;23140;-75
2024/01/29 06:16:57;;;;;;;57.50;29.60;;;;;;;-1.41;89.63;101947.10;137117;1276;22860;-74
2024/01/29 06:20:03;;;;;;;58.60;30.30;;;;;;;-1.42;89.64;101951.65;137136;1276;23067;-74
2024/01/29 06:23:09;;;;;;;59.10;30.90;;;;;;;-1.45;89.76;101949.81;136797;1276;23255;-75
2024/01/29 06:26:10;;;;;;;58.80;30.10;;;;;;;-1.46;89.32;101953.16;136898;1276;22407;-75
2024/01/29 06:29:10;;;;;;;;;;;;;;;-1.48;89.54;101947.64;137204;1276;22370;-74
2024/01/29 06:32:11;;;;;;;43.70;23.00;;;;;;;-1.50;89.50;101951.35;137139;1276;22264;-74
2024/01/29 06:35:12;;;;;;;53.10;28.20;;;;;;;-1.52;89.77;101953.67;137143;1276;23179;-74
2024/01/29 06:38:13;;;;;;;54.30;28.40;;;;;;;-1.53;89.84;101949.17;137104;1276;23039;-76
2024/01/29 06:41:20;;;;;;;;;;;;;;;-1.53;89.69;101952.83;137126;1277;22390;-75
2024/01/29 06:44:21;;;;;;;62.10;28.90;;;;;;;-1.53;89.66;101954.56;137144;1276;23032;-76
2024/01/29 06:47:22;;;;;;;60.60;29.40;;;;;;;-1.52;89.66;101951.59;137130;1277;23244;-75
2024/01/29 06:50:22;;;;;;;;;;;;;;;-1.52;89.68;101949.15;137154;1277;23070;-75
2024/01/29 06:53:23;;;;;;;59.20;32.30;;;;;;;-1.51;90.05;101952.07;137142;1277;23110;-75
2024/01/29 06:56:24;;;;;;;60.70;29.60;;;;;;;-1.48;89.95;101953.56;137181;1276;22233;-75
2024/01/29 06:59:25;;;;;;;56.10;29.30;;;;;;;-1.47;89.97;101950.05;137159;1276;22412;-75
2024/01/29 07:02:26;;;;;;;55.90;29.10;;;;;;;-1.41;89.89;101948.66;137156;1276;22411;-75
2024/01/29 07:05:27;;;;;;;55.20;29.70;;;;;;;-1.31;90.45;101950.09;137165;1276;23038;-75
2024/01/29 07:08:28;;;;;;;54.30;28.20;;;;;;;-1.19;90.26;101950.08;137145;1273;22995;-75
2024/01/29 07:11:29;;;;;;;56.40;28.10;;;;;;;-1.06;90.30;101948.81;136988;1276;22224;-75
2024/01/29 07:14:29;;;;;;;54.20;28.10;;;;;;;-0.94;90.22;101948.78;137137;1276;23185;-75
2024/01/29 07:17:30;;;;;;;58.40;28.50;;;;;;;-0.83;90.08;101948.63;137169;1276;23429;-75
2024/01/29 07:20:38;;;;;;;54.90;28.40;;;;;;;-0.73;89.96;101943.77;137120;1276;22307;-75
2024/01/29 07:23:39;;;;;;;57.80;29.50;;;;;;;-0.66;89.79;101947.55;137174;1276;22303;-75
2024/01/29 07:26:39;;;;;;;53.80;29.40;;;;;;;-0.65;89.67;101942.13;137136;1276;22365;-75
2024/01/29 07:29:40;;;;;;;49.10;27.40;;;;;;;-0.64;89.41;101944.55;136984;1276;23124;-75
2024/01/29 07:32:42;;;;;;;50.90;27.20;;;;;;;-0.61;89.50;101953.30;137184;1276;23137;-75
2024/01/29 07:35:43;;;;;;;58.20;28.30;;;;;;;-0.55;89.45;101955.36;137153;1276;22243;-75
2024/01/29 07:38:44;;;;;;;49.60;26.60;;;;;;;-0.45;89.43;101956.05;137149;1276;22248;-75
2024/01/29 07:41:45;;;;;;;50.30;27.10;;;;;;;-0.38;89.35;101952.02;137198;1276;22391;-75
2024/01/29 07:44:45;;;;;;;;;;;;;;;-0.31;89.31;101957.18;137153;1266;22357;-75
2024/01/29 07:47:46;;;;;;;52.60;28.00;;;;;;;-0.24;89.16;101959.16;137118;1276;22417;-75
2024/01/29 07:50:47;;;;;;;47.70;25.80;;;;;;;-0.15;89.08;101960.60;137171;1276;22388;-75
2024/01/29 07:53:48;;;;;;;56.40;27.20;;;;;;;-0.11;88.84;101959.26;137149;1276;22355;-75
2024/01/29 07:56:48;;;;;;;49.80;26.80;;;;;;;-0.02;89.02;101966.24;137163;1276;22436;-75
2024/01/29 07:59:55;;;;;;;58.40;27.00;;;;;;;0.09;88.86;101966.38;137150;1276;23224;-75
2024/01/29 08:02:56;;;;;;;50.00;26.30;;;;;;;0.16;88.56;101960.93;137140;1276;22329;-75
2024/01/29 08:05:57;;;;;;;42.70;23.50;;;;;;;0.28;88.68;101956.48;137146;1276;22355;-76
2024/01/29 08:08:57;;;;;;;49.90;25.40;;;;;;;0.40;88.57;101950.98;137170;1276;22364;-75
2024/01/29 08:11:58;;;;;;;46.50;25.40;;;;;;;0.52;88.29;101959.45;137101;1276;22381;-75
2024/01/29 08:14:59;;;;;;;47.70;26.10;;;;;;;0.69;88.31;101958.64;137163;1276;22381;-76
2024/01/29 08:18:00;;;;;;;48.60;25.30;;;;;;;0.89;88.08;101955.75;137165;1276;23554;-76
2024/01/29 08:21:00;;;;;;;46.60;25.70;;;;;;;1.13;87.96;101947.84;137119;1276;22444;-76
2024/01/29 08:24:04;;;;;;;47.40;25.50;;;;;;;1.53;87.76;101948.80;137153;1276;22333;-76
2024/01/29 08:27:05;;;;;;;40.10;22.10;;;;;;;1.91;87.13;101947.23;137163;1276;22376;-76
2024/01/29 08:30:06;;;;;;;43.20;23.50;;;;;;;2.21;85.84;101938.23;137113;1276;22375;-76
2024/01/29 08:33:07;;;;;;;39.40;22.60;;;;;;;2.41;85.30;101937.49;136972;1276;22355;-76
2024/01/29 08:36:08;;;;;;;41.80;22.30;;;;;;;2.67;85.85;101939.96;137160;1276;22350;-76
2024/01/29 08:39:09;;;;;;;;;;;;;;;3.01;85.30;101945.00;137173;1276;22380;-76
2024/01/29 08:42:09;;;;;;;37.60;20.30;;;;;;;3.25;83.95;101946.31;137132;1276;22366;-76
2024/01/29 08:45:15;;;;;;;38.00;21.20;;;;;;;3.53;83.54;101952.44;137103;1276;22338;-76
2024/01/29 08:48:19;;;;;;;37.30;20.60;;;;;;;3.84;83.98;101945.47;137141;1276;22298;-76
2024/01/29 08:51:19;;;;;;;;;;;;;;;4.11;83.63;101951.60;137180;1277;22445;-76
2024/01/29 08:54:20;;;;;;;38.80;19.80;;;;;;;4.27;82.51;101949.15;137148;1269;22391;-76
2024/01/29 08:57:20;;;;;;;36.00;18.90;;;;;;;4.30;81.38;101945.13;137109;1276;22371;-76
2024/01/29 09:00:21;;;;;;;35.20;18.90;;;;;;;4.44;81.19;101944.06;137163;1276;22503;-76
2024/01/29 09:03:24;;;;;;;32.80;19.00;;;;;;;4.83;81.71;101948.41;137117;1276;22357;-76
2024/01/29 09:06:25;;;;;;;37.00;19.50;;;;;;;5.34;81.73;101950.77;136970;1272;22388;-76
2024/01/29 09:09:25;;;;;;;29.70;16.40;;;;;;;5.61;80.50;101958.49;136988;1276;22431;-76
2024/01/29 09:12:29;;;;;;;32.30;17.80;;;;;;;5.84;79.00;101949.09;137113;1276;22389;-76
2024/01/29 09:15:50;;;;;;;32.70;18.70;;;;;;;5.97;78.78;101948.86;137095;1276;22392;-76
2024/01/29 09:18:55;;;;;;;35.90;18.40;;;;;;;6.20;78.23;101950.11;136985;1276;22350;-75
2024/01/29 09:25:50;;;;;;;36.90;21.20;;;;;;;6.25;73.86;101952.08;137101;1277;23171;-76
2024/01/29 09:28:54;;;;;;;28.30;15.20;;;;;;;6.20;74.39;101958.70;137114;1276;22308;-76
2024/01/29 09:31:54;;;;;;;29.30;16.50;;;;;;;6.18;74.30;101956.89;136905;1276;268073;-76
2024/01/29 09:34:55;;;;;;;;;;;;;;;6.25;74.25;101954.56;137116;1270;22462;-76
2024/01/29 09:37:56;;;;;;;26.90;14.80;;;;;;;6.28;73.33;101950.30;137112;1273;22388;-76
2024/01/29 09:40:58;;;;;;;26.80;14.90;;;;;;;6.18;72.43;101948.98;137083;1276;22378;-75
2024/01/29 09:44:02;;;;;;;25.60;14.10;;;;;;;6.19;72.57;101946.66;137089;1276;22375;-75
2024/01/29 09:47:05;;;;;;;26.50;14.40;;;;;;;6.26;71.68;101942.38;137131;1276;22510;-76
2024/01/29 09:50:09;;;;;;;37.50;18.90;;;;;;;6.29;70.95;101940.21;137110;1276;22390;-76
2024/01/29 09:53:19;;;;;;;26.30;14.20;;;;;;;6.41;71.78;101939.34;136992;1271;22382;-76
2024/01/29 09:56:20;;;;;;;27.30;13.60;;;;;;;6.31;70.56;101932.75;137114;1276;22266;-76
2024/01/29 09:59:22;;;;;;;;;;;;;;;6.35;71.31;101935.69;137124;1276;23128;-76
2024/01/29 10:02:24;;;;;;;26.40;13.80;;;;;;;6.37;70.92;101935.91;137095;1276;22353;-77
2024/01/29 10:05:29;;;;;;;24.60;12.30;;;;;;;6.47;71.42;101940.00;137084;1276;22380;-77
2024/01/29 10:08:32;;;;;;;22.10;13.00;;;;;;;6.55;70.53;101944.96;137094;1273;22386;-78
2024/01/29 10:11:33;;;;;;;24.40;12.80;;;;;;;6.74;70.66;101944.15;137073;1276;23171;-77
2024/01/29 10:14:34;;;;;;;26.00;12.90;;;;;;;7.07;70.62;101945.70;137105;1276;22348;-80
2024/01/29 10:17:35;;;;;;;25.30;11.80;;;;;;;7.37;70.39;101945.11;137077;1276;22232;-79
2024/01/29 10:20:36;;;;;;;;;;;;;;;7.63;68.18;101946.95;137071;1276;22389;-79
2024/01/29 10:23:36;;;;;;;22.20;11.10;;;;;;;7.75;67.65;101942.60;137092;1276;22392;-79
2024/01/29 10:47:49;;;;;;;;;;;;;;;;;;;;;
2024/01/29 10:55:02;;;;;;;16.30;8.30;;;;;;;7.90;58.42;101916.02;137076;1276;23130;-79
2024/01/29 10:58:04;;;;;;;17.80;8.30;;;;;;;7.80;58.00;101912.66;137087;1276;22313;-79
2024/01/29 11:01:05;;;;;;;18.20;8.70;;;;;;;7.80;59.01;101903.33;137087;1276;22422;-79
2024/01/29 11:04:09;;;;;;;18.50;8.60;;;;;;;7.98;59.73;101901.95;137052;1276;22357;-79
2024/01/29 11:07:30;;;;;;;17.80;9.30;;;;;;;8.14;58.60;101896.21;137078;1276;22371;-76
2024/01/29 11:12:04;;;;;;;;;;;;;;;;;;;;;
2024/01/29 11:24:12;;;;;;;11.90;6.30;;;;;;;8.40;56.92;101888.77;136912;1276;22402;-79
2024/01/29 11:27:15;;;;;;;11.30;5.90;;;;;;;8.58;56.71;101883.78;137031;1276;22394;-79
2024/01/29 11:30:21;;;;;;;13.20;6.80;;;;;;;8.70;56.11;101877.80;137057;1276;22358;-79
2024/01/29 11:33:22;;;;;;;13.90;6.10;;;;;;;8.76;56.20;101875.09;137068;1276;22390;-79
2024/01/29 11:36:23;;;;;;;21.80;9.60;;;;;;;8.84;56.55;101874.09;137066;1276;22350;-79
2024/01/29 11:39:27;;;;;;;45.10;20.40;;;;;;;8.93;55.72;101871.33;137062;1270;22397;-79
2024/01/29 11:42:28;;;;;;;18.10;7.50;;;;;;;8.97;54.99;101872.61;137075;1276;22352;-79
2024/01/29 11:45:32;;;;;;;22.20;11.60;;;;;;;9.00;55.30;101867.16;137079;1274;22365;-79
2024/01/29 11:48:33;;;;;;;16.50;9.60;;;;;;;9.09;55.08;101864.52;137086;1276;22344;-79
2024/01/29 11:51:34;;;;;;;;;;;;;;;9.18;56.16;101862.23;137087;1276;22379;-79
2024/01/29 11:54:38;;;;;;;12.80;6.00;;;;;;;9.29;53.38;101859.32;137092;1276;22377;-79
2024/01/29 11:57:47;;;;;;;24.80;12.30;;;;;;;9.33;54.01;101857.55;137053;1276;22445;-78
2024/01/29 12:01:42;;;;;;;;;;;;;;;;;;;;;
2024/01/29 12:04:49;;;;;;;11.70;5.90;;;;;;;9.29;52.21;101857.23;137156;1276;22333;-78
2024/01/29 12:07:52;;;;;;;11.00;5.60;;;;;;;9.24;51.76;101853.14;137138;1276;22388;-79
2024/01/29 12:11:02;;;;;;;14.10;6.00;;;;;;;9.24;52.29;101850.89;137074;1276;22361;-79
2024/01/29 12:14:04;;;;;;;9.80;4.90;;;;;;;9.28;51.73;101846.69;136876;1275;23356;-79
2024/01/29 12:17:06;;;;;;;12.10;5.40;;;;;;;9.26;51.32;101841.86;137101;1276;23406;-79
2024/01/29 12:20:10;;;;;;;9.50;5.20;;;;;;;9.27;52.28;101833.71;137124;1276;22355;-78
2024/01/29 12:23:16;;;;;;;10.30;5.40;;;;;;;9.29;51.44;101831.40;137139;1276;23114;-78
2024/01/29 12:26:27;;;;;;;10.90;5.70;;;;;;;9.24;50.33;101832.27;137160;1276;22918;-79
2024/01/29 12:29:28;;;;;;;11.00;5.80;;;;;;;9.18;50.49;101823.20;137100;1276;22371;-79
2024/01/29 12:32:33;;;;;;;11.20;5.10;;;;;;;9.08;50.02;101819.02;137093;1276;23016;-79
2024/01/29 12:35:36;;;;;;;8.90;5.00;;;;;;;9.08;51.23;101819.88;137046;1276;23412;-79
2024/01/29 12:38:47;;;;;;;12.50;5.00;;;;;;;9.20;51.37;101820.61;137102;1276;22351;-79
2024/01/29 12:41:50;;;;;;;10.80;5.00;;;;;;;9.26;50.22;101823.33;137027;1276;23152;-79
2024/01/29 12:44:55;;;;;;;11.30;6.00;;;;;;;9.25;49.87;101821.79;137141;1276;23516;-79
2024/01/29 12:48:27;;;;;;;8.90;5.10;;;;;;;9.26;50.01;101814.17;137060;1276;23129;-78
2024/01/29 12:51:28;;;;;;;8.90;4.80;;;;;;;9.35;50.38;101807.10;137108;1276;23051;-79
2024/01/29 12:54:28;;;;;;;;;;;;;;;9.38;49.99;101808.46;137093;1276;22433;-79
2024/01/29 12:57:29;;;;;;;10.30;6.20;;;;;;;9.40;50.14;101801.23;137090;1276;23018;-79
2024/01/29 13:00:30;;;;;;;10.00;5.30;;;;;;;9.41;50.20;101798.15;137086;1276;22431;-79
2024/01/29 13:03:32;;;;;;;10.30;5.60;;;;;;;9.39;49.95;101799.02;137082;1276;22454;-79
2024/01/29 13:06:33;;;;;;;11.70;5.90;;;;;;;9.31;49.93;101795.58;137055;1276;23041;-79
2024/01/29 13:09:33;;;;;;;;;;;;;;;9.24;50.12;101801.38;137113;1276;22459;-79
2024/01/29 13:12:34;;;;;;;8.90;5.40;;;;;;;9.15;49.99;101798.19;137047;1276;22360;-79
2024/01/29 13:15:35;;;;;;;;;;;;;;;9.08;50.33;101793.79;137073;1276;23505;-79
2024/01/29 13:18:36;;;;;;;10.50;6.00;;;;;;;9.02;50.79;101794.23;137081;1273;22409;-79
2024/01/29 13:21:48;;;;;;;;;;;;;;;;;;;;;
2024/01/29 13:25:16;;;;;;;13.00;7.20;;;;;;;8.96;51.65;101796.65;137116;1276;22423;-79
2024/01/29 13:28:39;;;;;;;13.80;6.50;;;;;;;8.95;52.06;101794.77;137094;1276;22368;-79
2024/01/29 13:31:42;;;;;;;33.20;18.10;;;;;;;8.90;52.40;101796.73;137059;1276;22404;-79
2024/01/29 13:34:44;;;;;;;14.20;8.30;;;;;;;8.85;52.77;101797.42;137086;1276;23129;-79
2024/01/29 13:37:45;;;;;;;10.50;6.20;;;;;;;8.79;52.42;101798.09;137115;1276;22353;-78
2024/01/29 13:40:48;;;;;;;12.60;6.90;;;;;;;8.68;52.67;101796.21;137099;1276;22383;-75
2024/01/29 13:43:52;;;;;;;9.80;5.80;;;;;;;8.59;52.68;101796.56;137068;1270;22334;-74
2024/01/29 13:47:16;;;;;;;13.20;6.60;;;;;;;8.46;52.32;101802.26;137065;1276;22392;-80
2024/01/29 13:50:17;;;;;;;11.40;5.50;;;;;;;8.36;52.55;101807.06;137102;1271;22309;-80
2024/01/29 13:53:17;;;;;;;;;;;;;;;8.27;52.26;101811.20;137078;1276;22408;-80
2024/01/29 13:56:20;;;;;;;9.50;5.30;;;;;;;8.21;52.45;101810.93;137056;1276;22485;-79
2024/01/29 13:59:21;;;;;;;14.10;5.20;;;;;;;8.17;52.29;101806.50;137102;1276;22366;-80
2024/01/29 14:02:23;;;;;;;12.60;4.70;;;;;;;8.14;52.27;101800.14;137063;1276;22379;-80
2024/01/29 14:05:23;;;;;;;8.90;5.30;;;;;;;8.10;52.59;101803.23;137079;1276;22349;-80
2024/01/29 14:08:25;;;;;;;13.10;6.10;;;;;;;8.07;52.91;101802.55;137096;1271;22441;-80
2024/01/29 14:11:26;;;;;;;9.00;4.70;;;;;;;8.04;53.11;101801.18;137097;1276;22280;-80
2024/01/29 14:15:10;;;;;;;12.10;5.50;;;;;;;8.03;53.23;101798.81;137089;1273;22369;-80
2024/01/29 14:18:09;;;;;;;11.30;5.10;;;;;;;7.98;53.05;101798.86;137082;1276;22465;-80
2024/01/29 14:21:10;;;;;;;11.30;4.60;;;;;;;7.95;53.34;101800.48;137074;1276;23576;-80
2024/01/29 14:24:10;;;;;;;;;;;;;;;7.92;53.37;101804.38;137157;1276;22380;-80
2024/01/29 14:27:11;;;;;;;9.50;4.50;;;;;;;7.87;53.56;101800.30;137119;1276;22260;-80
2024/01/29 14:30:15;;;;;;;8.60;4.70;;;;;;;7.82;53.69;101802.95;137128;1276;22358;-80
2024/01/29 14:33:21;;;;;;;10.30;4.60;;;;;;;7.76;53.58;101799.33;137105;1276;23147;-80
2024/01/29 14:36:22;;;;;;;10.00;5.00;;;;;;;7.72;53.54;101798.19;137086;1276;22311;-80
2024/01/29 14:39:32;;;;;;;;;;;;;;;7.69;53.42;101798.55;137042;1276;22374;-80
2024/01/29 14:43:22;;;;;;;11.50;5.10;;;;;;;7.65;53.47;101791.45;137060;1276;22379;-80
2024/01/29 14:47:01;;;;;;;10.50;5.00;;;;;;;7.60;53.69;101789.67;137137;1273;22309;-80
2024/01/29 14:50:05;;;;;;;10.30;4.60;;;;;;;7.53;53.77;101783.30;137073;1276;22450;-80